sensor_id;sensor_type;location;lat;lon;timestamp;P1;durP1;ratioP1;P2;durP2;ratioP2
7231;SDS011;3657;49.630;11.018;2023-04-25T00:01:15;5.57;;;5.37;;
7231;SDS011;3657;49.630;11.018;2023-04-25T00:03:41;6.83;;;6.63;;
7231;SDS011;3657;49.630;11.018;2023-04-25T00:06:08;6.13;;;6.03;;
7231;SDS011;3657;49.630;11.018;2023-04-25T00:08:36;5.93;;;5.73;;
7231;SDS011;3657;49.630;11.018;2023-04-25T00:11:03;5.80;;;5.57;;
7231;SDS011;3657;49.630;11.018;2023-04-25T00:13:30;5.27;;;5.17;;
7231;SDS011;3657;49.630;11.018;2023-04-25T00:15:56;5.10;;;4.97;;
7231;SDS011;3657;49.630;11.018;2023-04-25T00:18:23;5.67;;;5.53;;
7231;SDS011;3657;49.630;11.018;2023-04-25T00:20:50;5.63;;;5.53;;
7231;SDS011;3657;49.630;11.018;2023-04-25T00:23:17;5.90;;;5.80;;
7231;SDS011;3657;49.630;11.018;2023-04-25T00:25:45;5.80;;;5.70;;
7231;SDS011;3657;49.630;11.018;2023-04-25T00:28:12;7.00;;;6.80;;
7231;SDS011;3657;49.630;11.018;2023-04-25T00:30:40;5.80;;;5.70;;
7231;SDS011;3657;49.630;11.018;2023-04-25T00:33:07;6.03;;;5.83;;
7231;SDS011;3657;49.630;11.018;2023-04-25T00:35:35;5.00;;;4.90;;
7231;SDS011;3657;49.630;11.018;2023-04-25T00:38:02;5.10;;;5.00;;
7231;SDS011;3657;49.630;11.018;2023-04-25T00:40:28;6.53;;;6.33;;
7231;SDS011;3657;49.630;11.018;2023-04-25T00:42:56;5.13;;;5.03;;
7231;SDS011;3657;49.630;11.018;2023-04-25T00:45:23;5.47;;;5.27;;
7231;SDS011;3657;49.630;11.018;2023-04-25T00:47:54;5.27;;;5.17;;
7231;SDS011;3657;49.630;11.018;2023-04-25T00:50:21;7.17;;;6.87;;
7231;SDS011;3657;49.630;11.018;2023-04-25T00:52:48;5.67;;;5.47;;
7231;SDS011;3657;49.630;11.018;2023-04-25T00:55:15;5.40;;;5.30;;
7231;SDS011;3657;49.630;11.018;2023-04-25T00:57:42;4.73;;;4.63;;
7231;SDS011;3657;49.630;11.018;2023-04-25T01:00:10;5.10;;;5.00;;
7231;SDS011;3657;49.630;11.018;2023-04-25T01:02:38;6.50;;;6.30;;
7231;SDS011;3657;49.630;11.018;2023-04-25T01:05:06;6.10;;;6.00;;
7231;SDS011;3657;49.630;11.018;2023-04-25T01:07:33;4.93;;;4.83;;
7231;SDS011;3657;49.630;11.018;2023-04-25T01:10:00;4.87;;;4.77;;
7231;SDS011;3657;49.630;11.018;2023-04-25T01:12:29;5.93;;;5.83;;
7231;SDS011;3657;49.630;11.018;2023-04-25T01:14:55;5.40;;;5.10;;
7231;SDS011;3657;49.630;11.018;2023-04-25T01:17:23;5.43;;;5.23;;
7231;SDS011;3657;49.630;11.018;2023-04-25T01:19:50;5.17;;;5.07;;
7231;SDS011;3657;49.630;11.018;2023-04-25T01:22:18;5.37;;;5.23;;
7231;SDS011;3657;49.630;11.018;2023-04-25T01:24:45;6.20;;;6.00;;
7231;SDS011;3657;49.630;11.018;2023-04-25T01:27:12;6.83;;;6.63;;
7231;SDS011;3657;49.630;11.018;2023-04-25T01:29:40;5.37;;;5.27;;
7231;SDS011;3657;49.630;11.018;2023-04-25T01:32:07;5.87;;;5.63;;
7231;SDS011;3657;49.630;11.018;2023-04-25T01:34:34;6.70;;;6.40;;
7231;SDS011;3657;49.630;11.018;2023-04-25T01:37:00;5.67;;;5.47;;
7231;SDS011;3657;49.630;11.018;2023-04-25T01:39:28;5.00;;;4.90;;
7231;SDS011;3657;49.630;11.018;2023-04-25T01:41:55;5.70;;;5.50;;
7231;SDS011;3657;49.630;11.018;2023-04-25T01:44:23;5.07;;;4.97;;
7231;SDS011;3657;49.630;11.018;2023-04-25T01:46:50;4.93;;;4.83;;
7231;SDS011;3657;49.630;11.018;2023-04-25T01:49:17;5.57;;;5.47;;
7231;SDS011;3657;49.630;11.018;2023-04-25T01:51:44;5.73;;;5.53;;
7231;SDS011;3657;49.630;11.018;2023-04-25T01:54:11;6.93;;;6.33;;
7231;SDS011;3657;49.630;11.018;2023-04-25T01:56:40;6.00;;;5.80;;
7231;SDS011;3657;49.630;11.018;2023-04-25T01:59:06;5.90;;;5.80;;
7231;SDS011;3657;49.630;11.018;2023-04-25T02:01:33;5.10;;;5.00;;
7231;SDS011;3657;49.630;11.018;2023-04-25T02:04:00;6.10;;;5.90;;
7231;SDS011;3657;49.630;11.018;2023-04-25T02:06:26;5.00;;;4.90;;
7231;SDS011;3657;49.630;11.018;2023-04-25T02:08:53;5.00;;;4.90;;
7231;SDS011;3657;49.630;11.018;2023-04-25T02:11:20;4.67;;;4.57;;
7231;SDS011;3657;49.630;11.018;2023-04-25T02:13:48;5.30;;;5.20;;
7231;SDS011;3657;49.630;11.018;2023-04-25T02:16:14;7.10;;;6.80;;
7231;SDS011;3657;49.630;11.018;2023-04-25T02:18:41;4.77;;;4.67;;
7231;SDS011;3657;49.630;11.018;2023-04-25T02:21:07;6.63;;;6.43;;
7231;SDS011;3657;49.630;11.018;2023-04-25T02:23:34;5.83;;;5.63;;
7231;SDS011;3657;49.630;11.018;2023-04-25T02:26:01;5.47;;;5.27;;
7231;SDS011;3657;49.630;11.018;2023-04-25T02:28:27;6.37;;;6.17;;
7231;SDS011;3657;49.630;11.018;2023-04-25T02:30:55;5.70;;;5.50;;
7231;SDS011;3657;49.630;11.018;2023-04-25T02:33:22;5.33;;;5.23;;
7231;SDS011;3657;49.630;11.018;2023-04-25T02:35:49;5.97;;;5.77;;
7231;SDS011;3657;49.630;11.018;2023-04-25T02:38:15;5.63;;;5.43;;
7231;SDS011;3657;49.630;11.018;2023-04-25T02:40:42;6.33;;;6.13;;
7231;SDS011;3657;49.630;11.018;2023-04-25T02:43:09;6.30;;;6.10;;
7231;SDS011;3657;49.630;11.018;2023-04-25T02:45:35;6.53;;;6.33;;
7231;SDS011;3657;49.630;11.018;2023-04-25T02:48:04;5.30;;;5.20;;
7231;SDS011;3657;49.630;11.018;2023-04-25T02:50:31;7.33;;;7.03;;
7231;SDS011;3657;49.630;11.018;2023-04-25T02:52:57;6.17;;;5.97;;
7231;SDS011;3657;49.630;11.018;2023-04-25T02:55:24;5.87;;;5.67;;
7231;SDS011;3657;49.630;11.018;2023-04-25T02:57:51;6.37;;;6.17;;
7231;SDS011;3657;49.630;11.018;2023-04-25T03:00:20;5.60;;;5.50;;
7231;SDS011;3657;49.630;11.018;2023-04-25T03:02:46;5.43;;;5.23;;
7231;SDS011;3657;49.630;11.018;2023-04-25T03:05:14;5.43;;;5.33;;
7231;SDS011;3657;49.630;11.018;2023-04-25T03:07:41;5.83;;;5.63;;
7231;SDS011;3657;49.630;11.018;2023-04-25T03:10:09;5.20;;;5.10;;
7231;SDS011;3657;49.630;11.018;2023-04-25T03:12:36;5.43;;;5.33;;
7231;SDS011;3657;49.630;11.018;2023-04-25T03:15:03;6.07;;;5.87;;
7231;SDS011;3657;49.630;11.018;2023-04-25T03:17:30;5.70;;;5.43;;
7231;SDS011;3657;49.630;11.018;2023-04-25T03:19:57;6.07;;;5.87;;
7231;SDS011;3657;49.630;11.018;2023-04-25T03:22:25;6.40;;;6.20;;
7231;SDS011;3657;49.630;11.018;2023-04-25T03:24:51;6.80;;;6.60;;
7231;SDS011;3657;49.630;11.018;2023-04-25T03:27:18;7.87;;;7.57;;
7231;SDS011;3657;49.630;11.018;2023-04-25T03:29:45;6.97;;;6.77;;
7231;SDS011;3657;49.630;11.018;2023-04-25T03:32:11;7.87;;;7.50;;
7231;SDS011;3657;49.630;11.018;2023-04-25T03:34:38;7.77;;;7.37;;
7231;SDS011;3657;49.630;11.018;2023-04-25T03:37:05;7.33;;;7.13;;
7231;SDS011;3657;49.630;11.018;2023-04-25T03:39:32;7.37;;;7.17;;
7231;SDS011;3657;49.630;11.018;2023-04-25T03:41:59;7.13;;;6.93;;
7231;SDS011;3657;49.630;11.018;2023-04-25T03:44:26;6.53;;;6.33;;
7231;SDS011;3657;49.630;11.018;2023-04-25T03:46:52;8.60;;;8.30;;
7231;SDS011;3657;49.630;11.018;2023-04-25T03:49:19;8.83;;;8.53;;
7231;SDS011;3657;49.630;11.018;2023-04-25T03:51:46;7.83;;;7.53;;
7231;SDS011;3657;49.630;11.018;2023-04-25T03:54:12;8.53;;;8.13;;
7231;SDS011;3657;49.630;11.018;2023-04-25T03:56:40;6.70;;;6.50;;
7231;SDS011;3657;49.630;11.018;2023-04-25T03:59:07;8.47;;;8.13;;
7231;SDS011;3657;49.630;11.018;2023-04-25T04:01:33;6.63;;;6.43;;
7231;SDS011;3657;49.630;11.018;2023-04-25T04:04:00;6.53;;;6.33;;
7231;SDS011;3657;49.630;11.018;2023-04-25T04:06:27;10.33;;;9.97;;
7231;SDS011;3657;49.630;11.018;2023-04-25T04:08:53;9.13;;;8.83;;
7231;SDS011;3657;49.630;11.018;2023-04-25T04:11:20;6.73;;;6.53;;
7231;SDS011;3657;49.630;11.018;2023-04-25T04:13:48;8.20;;;7.90;;
7231;SDS011;3657;49.630;11.018;2023-04-25T04:16:15;6.63;;;6.43;;
7231;SDS011;3657;49.630;11.018;2023-04-25T04:18:41;7.40;;;7.20;;
7231;SDS011;3657;49.630;11.018;2023-04-25T04:21:08;7.03;;;6.83;;
7231;SDS011;3657;49.630;11.018;2023-04-25T04:23:35;7.17;;;6.97;;
7231;SDS011;3657;49.630;11.018;2023-04-25T04:26:02;7.27;;;6.97;;
7231;SDS011;3657;49.630;11.018;2023-04-25T04:28:30;8.10;;;7.80;;
7231;SDS011;3657;49.630;11.018;2023-04-25T04:30:58;6.70;;;6.50;;
7231;SDS011;3657;49.630;11.018;2023-04-25T04:33:25;7.40;;;7.20;;
7231;SDS011;3657;49.630;11.018;2023-04-25T04:35:53;6.80;;;6.50;;
7231;SDS011;3657;49.630;11.018;2023-04-25T04:38:20;7.03;;;6.83;;
7231;SDS011;3657;49.630;11.018;2023-04-25T04:40:47;6.60;;;6.40;;
7231;SDS011;3657;49.630;11.018;2023-04-25T04:43:13;6.17;;;5.97;;
7231;SDS011;3657;49.630;11.018;2023-04-25T04:45:42;6.93;;;6.73;;
7231;SDS011;3657;49.630;11.018;2023-04-25T04:48:10;7.00;;;6.80;;
7231;SDS011;3657;49.630;11.018;2023-04-25T04:50:39;6.90;;;6.70;;
7231;SDS011;3657;49.630;11.018;2023-04-25T04:53:06;6.77;;;6.57;;
7231;SDS011;3657;49.630;11.018;2023-04-25T04:55:33;6.97;;;6.77;;
7231;SDS011;3657;49.630;11.018;2023-04-25T04:57:59;6.60;;;6.40;;
7231;SDS011;3657;49.630;11.018;2023-04-25T05:00:26;7.47;;;7.17;;
7231;SDS011;3657;49.630;11.018;2023-04-25T05:02:54;5.83;;;5.63;;
7231;SDS011;3657;49.630;11.018;2023-04-25T05:05:22;5.73;;;5.63;;
7231;SDS011;3657;49.630;11.018;2023-04-25T05:07:49;5.53;;;5.43;;
7231;SDS011;3657;49.630;11.018;2023-04-25T05:10:16;7.67;;;7.37;;
7231;SDS011;3657;49.630;11.018;2023-04-25T05:12:42;6.17;;;5.97;;
7231;SDS011;3657;49.630;11.018;2023-04-25T05:15:09;6.27;;;6.07;;
7231;SDS011;3657;49.630;11.018;2023-04-25T05:17:36;5.17;;;5.07;;
7231;SDS011;3657;49.630;11.018;2023-04-25T05:20:04;5.53;;;5.33;;
7231;SDS011;3657;49.630;11.018;2023-04-25T05:22:33;5.07;;;4.97;;
7231;SDS011;3657;49.630;11.018;2023-04-25T05:24:59;5.13;;;5.03;;
7231;SDS011;3657;49.630;11.018;2023-04-25T05:27:26;5.63;;;5.43;;
7231;SDS011;3657;49.630;11.018;2023-04-25T05:29:53;6.27;;;6.07;;
7231;SDS011;3657;49.630;11.018;2023-04-25T05:32:19;4.30;;;4.20;;
7231;SDS011;3657;49.630;11.018;2023-04-25T05:34:46;5.30;;;5.20;;
7231;SDS011;3657;49.630;11.018;2023-04-25T05:37:12;5.60;;;5.50;;
7231;SDS011;3657;49.630;11.018;2023-04-25T05:39:40;5.03;;;4.93;;
7231;SDS011;3657;49.630;11.018;2023-04-25T05:42:07;4.90;;;4.70;;
7231;SDS011;3657;49.630;11.018;2023-04-25T05:44:35;5.30;;;5.10;;
7231;SDS011;3657;49.630;11.018;2023-04-25T05:47:02;5.47;;;5.30;;
7231;SDS011;3657;49.630;11.018;2023-04-25T05:49:29;5.30;;;5.00;;
7231;SDS011;3657;49.630;11.018;2023-04-25T05:51:56;5.50;;;5.30;;
7231;SDS011;3657;49.630;11.018;2023-04-25T05:54:22;5.27;;;5.17;;
7231;SDS011;3657;49.630;11.018;2023-04-25T05:56:50;5.00;;;4.90;;
7231;SDS011;3657;49.630;11.018;2023-04-25T05:59:17;5.23;;;5.13;;
7231;SDS011;3657;49.630;11.018;2023-04-25T06:01:44;6.40;;;6.20;;
7231;SDS011;3657;49.630;11.018;2023-04-25T06:04:11;6.53;;;6.33;;
7231;SDS011;3657;49.630;11.018;2023-04-25T06:06:38;6.03;;;5.80;;
7231;SDS011;3657;49.630;11.018;2023-04-25T06:09:04;6.03;;;5.83;;
7231;SDS011;3657;49.630;11.018;2023-04-25T06:11:31;6.30;;;6.10;;
7231;SDS011;3657;49.630;11.018;2023-04-25T06:13:59;5.67;;;5.33;;
7231;SDS011;3657;49.630;11.018;2023-04-25T06:16:26;5.70;;;5.50;;
7231;SDS011;3657;49.630;11.018;2023-04-25T06:18:53;6.13;;;5.93;;
7231;SDS011;3657;49.630;11.018;2023-04-25T06:21:19;6.03;;;5.83;;
7231;SDS011;3657;49.630;11.018;2023-04-25T06:23:46;6.37;;;6.17;;
7231;SDS011;3657;49.630;11.018;2023-04-25T06:26:13;5.77;;;5.57;;
7231;SDS011;3657;49.630;11.018;2023-04-25T06:28:39;6.10;;;5.90;;
7231;SDS011;3657;49.630;11.018;2023-04-25T06:31:07;8.20;;;7.90;;
7231;SDS011;3657;49.630;11.018;2023-04-25T06:33:34;6.40;;;6.20;;
7231;SDS011;3657;49.630;11.018;2023-04-25T06:36:01;6.87;;;6.67;;
7231;SDS011;3657;49.630;11.018;2023-04-25T06:38:28;8.23;;;7.93;;
7231;SDS011;3657;49.630;11.018;2023-04-25T06:40:54;6.87;;;6.47;;
7231;SDS011;3657;49.630;11.018;2023-04-25T06:43:21;6.93;;;6.70;;
7231;SDS011;3657;49.630;11.018;2023-04-25T06:45:48;6.87;;;6.67;;
7231;SDS011;3657;49.630;11.018;2023-04-25T06:48:16;6.47;;;6.27;;
7231;SDS011;3657;49.630;11.018;2023-04-25T06:50:44;9.43;;;9.10;;
7231;SDS011;3657;49.630;11.018;2023-04-25T06:53:11;11.77;;;11.27;;
7231;SDS011;3657;49.630;11.018;2023-04-25T06:55:37;7.30;;;7.10;;
7231;SDS011;3657;49.630;11.018;2023-04-25T06:58:04;9.90;;;9.50;;
7231;SDS011;3657;49.630;11.018;2023-04-25T07:00:32;8.60;;;8.30;;
7231;SDS011;3657;49.630;11.018;2023-04-25T07:02:58;7.67;;;7.47;;
7231;SDS011;3657;49.630;11.018;2023-04-25T07:05:26;8.00;;;7.70;;
7231;SDS011;3657;49.630;11.018;2023-04-25T07:07:53;7.13;;;6.93;;
7231;SDS011;3657;49.630;11.018;2023-04-25T07:10:20;6.80;;;6.60;;
7231;SDS011;3657;49.630;11.018;2023-04-25T07:12:46;7.50;;;7.23;;
7231;SDS011;3657;49.630;11.018;2023-04-25T07:15:13;7.70;;;7.40;;
7231;SDS011;3657;49.630;11.018;2023-04-25T07:17:40;6.97;;;6.77;;
7231;SDS011;3657;49.630;11.018;2023-04-25T07:20:07;7.63;;;7.30;;
7231;SDS011;3657;49.630;11.018;2023-04-25T07:22:36;6.70;;;6.40;;
7231;SDS011;3657;49.630;11.018;2023-04-25T07:25:03;6.67;;;6.47;;
7231;SDS011;3657;49.630;11.018;2023-04-25T07:27:30;6.47;;;6.27;;
7231;SDS011;3657;49.630;11.018;2023-04-25T07:29:57;7.60;;;7.30;;
7231;SDS011;3657;49.630;11.018;2023-04-25T07:32:24;6.87;;;6.67;;
7231;SDS011;3657;49.630;11.018;2023-04-25T07:34:52;7.13;;;6.93;;
7231;SDS011;3657;49.630;11.018;2023-04-25T07:37:18;6.73;;;6.53;;
7231;SDS011;3657;49.630;11.018;2023-04-25T07:39:46;7.00;;;6.80;;
7231;SDS011;3657;49.630;11.018;2023-04-25T07:42:13;7.00;;;6.80;;
7231;SDS011;3657;49.630;11.018;2023-04-25T07:44:40;6.47;;;6.27;;
7231;SDS011;3657;49.630;11.018;2023-04-25T07:47:07;6.40;;;6.20;;
7231;SDS011;3657;49.630;11.018;2023-04-25T07:49:35;6.90;;;6.70;;
7231;SDS011;3657;49.630;11.018;2023-04-25T07:52:02;6.93;;;6.73;;
7231;SDS011;3657;49.630;11.018;2023-04-25T07:54:31;6.03;;;5.83;;
7231;SDS011;3657;49.630;11.018;2023-04-25T07:56:59;6.10;;;5.90;;
7231;SDS011;3657;49.630;11.018;2023-04-25T07:59:26;6.40;;;6.20;;
7231;SDS011;3657;49.630;11.018;2023-04-25T08:01:52;6.73;;;6.53;;
7231;SDS011;3657;49.630;11.018;2023-04-25T08:04:19;8.37;;;8.03;;
7231;SDS011;3657;49.630;11.018;2023-04-25T08:06:46;6.30;;;6.10;;
7231;SDS011;3657;49.630;11.018;2023-04-25T08:09:12;6.13;;;5.93;;
7231;SDS011;3657;49.630;11.018;2023-04-25T08:11:40;6.87;;;6.67;;
7231;SDS011;3657;49.630;11.018;2023-04-25T08:14:09;6.90;;;6.70;;
7231;SDS011;3657;49.630;11.018;2023-04-25T08:16:35;6.80;;;6.60;;
7231;SDS011;3657;49.630;11.018;2023-04-25T08:19:02;7.07;;;6.87;;
7231;SDS011;3657;49.630;11.018;2023-04-25T08:21:29;6.70;;;6.40;;
7231;SDS011;3657;49.630;11.018;2023-04-25T08:23:56;6.97;;;6.77;;
7231;SDS011;3657;49.630;11.018;2023-04-25T08:26:23;7.83;;;7.57;;
7231;SDS011;3657;49.630;11.018;2023-04-25T08:28:53;7.37;;;7.17;;
7231;SDS011;3657;49.630;11.018;2023-04-25T08:34:10;7.77;;;7.47;;
7231;SDS011;3657;49.630;11.018;2023-04-25T08:36:40;7.73;;;7.53;;
7231;SDS011;3657;49.630;11.018;2023-04-25T08:39:15;7.03;;;6.80;;
7231;SDS011;3657;49.630;11.018;2023-04-25T08:41:42;8.33;;;8.03;;
7231;SDS011;3657;49.630;11.018;2023-04-25T08:44:09;8.33;;;8.03;;
7231;SDS011;3657;49.630;11.018;2023-04-25T08:46:37;8.20;;;7.90;;
7231;SDS011;3657;49.630;11.018;2023-04-25T08:49:06;9.33;;;8.93;;
7231;SDS011;3657;49.630;11.018;2023-04-25T08:51:35;9.30;;;9.00;;
7231;SDS011;3657;49.630;11.018;2023-04-25T08:54:10;7.97;;;7.57;;
7231;SDS011;3657;49.630;11.018;2023-04-25T08:56:38;8.83;;;8.43;;
7231;SDS011;3657;49.630;11.018;2023-04-25T08:59:07;9.57;;;9.17;;
7231;SDS011;3657;49.630;11.018;2023-04-25T09:01:34;8.97;;;8.67;;
7231;SDS011;3657;49.630;11.018;2023-04-25T09:04:02;9.90;;;9.47;;
7231;SDS011;3657;49.630;11.018;2023-04-25T09:06:29;9.10;;;8.70;;
7231;SDS011;3657;49.630;11.018;2023-04-25T09:09:00;9.07;;;8.73;;
7231;SDS011;3657;49.630;11.018;2023-04-25T09:11:29;9.07;;;8.77;;
7231;SDS011;3657;49.630;11.018;2023-04-25T09:14:09;9.10;;;8.73;;
7231;SDS011;3657;49.630;11.018;2023-04-25T09:16:58;9.17;;;8.67;;
7231;SDS011;3657;49.630;11.018;2023-04-25T09:19:28;9.70;;;9.30;;
7231;SDS011;3657;49.630;11.018;2023-04-25T09:21:57;8.87;;;8.57;;
7231;SDS011;3657;49.630;11.018;2023-04-25T09:24:34;8.67;;;8.37;;
7231;SDS011;3657;49.630;11.018;2023-04-25T09:27:05;8.57;;;8.37;;
7231;SDS011;3657;49.630;11.018;2023-04-25T09:29:33;8.43;;;8.13;;
7231;SDS011;3657;49.630;11.018;2023-04-25T09:32:12;7.13;;;6.93;;
7231;SDS011;3657;49.630;11.018;2023-04-25T09:34:43;7.40;;;7.20;;
7231;SDS011;3657;49.630;11.018;2023-04-25T09:37:16;7.47;;;7.27;;
7231;SDS011;3657;49.630;11.018;2023-04-25T09:39:44;7.33;;;6.93;;
7231;SDS011;3657;49.630;11.018;2023-04-25T09:42:11;6.00;;;5.80;;
7231;SDS011;3657;49.630;11.018;2023-04-25T09:44:40;6.10;;;5.90;;
7231;SDS011;3657;49.630;11.018;2023-04-25T09:47:09;5.23;;;5.03;;
7231;SDS011;3657;49.630;11.018;2023-04-25T09:49:38;5.73;;;5.53;;
7231;SDS011;3657;49.630;11.018;2023-04-25T09:52:08;5.10;;;5.00;;
7231;SDS011;3657;49.630;11.018;2023-04-25T09:54:35;6.17;;;5.97;;
7231;SDS011;3657;49.630;11.018;2023-04-25T09:57:03;5.70;;;5.50;;
7231;SDS011;3657;49.630;11.018;2023-04-25T09:59:36;5.13;;;4.93;;
7231;SDS011;3657;49.630;11.018;2023-04-25T10:02:06;5.53;;;5.33;;
7231;SDS011;3657;49.630;11.018;2023-04-25T10:04:34;5.67;;;5.47;;
7231;SDS011;3657;49.630;11.018;2023-04-25T10:07:01;4.70;;;4.60;;
7231;SDS011;3657;49.630;11.018;2023-04-25T10:09:31;4.63;;;4.53;;
7231;SDS011;3657;49.630;11.018;2023-04-25T10:11:59;4.97;;;4.87;;
7231;SDS011;3657;49.630;11.018;2023-04-25T10:14:26;5.20;;;5.10;;
7231;SDS011;3657;49.630;11.018;2023-04-25T10:16:53;4.80;;;4.70;;
7231;SDS011;3657;49.630;11.018;2023-04-25T10:19:21;4.97;;;4.77;;
7231;SDS011;3657;49.630;11.018;2023-04-25T10:21:50;4.73;;;4.60;;
7231;SDS011;3657;49.630;11.018;2023-04-25T10:24:18;5.33;;;5.13;;
7231;SDS011;3657;49.630;11.018;2023-04-25T10:26:47;5.43;;;5.23;;
7231;SDS011;3657;49.630;11.018;2023-04-25T10:29:18;5.07;;;4.93;;
7231;SDS011;3657;49.630;11.018;2023-04-25T10:31:48;5.50;;;5.30;;
7231;SDS011;3657;49.630;11.018;2023-04-25T10:34:15;5.80;;;5.60;;
7231;SDS011;3657;49.630;11.018;2023-04-25T10:36:42;6.33;;;6.13;;
7231;SDS011;3657;49.630;11.018;2023-04-25T10:39:08;4.90;;;4.70;;
7231;SDS011;3657;49.630;11.018;2023-04-25T10:41:52;5.97;;;5.77;;
7231;SDS011;3657;49.630;11.018;2023-04-25T10:44:20;5.20;;;5.00;;
7231;SDS011;3657;49.630;11.018;2023-04-25T10:46:46;6.00;;;5.70;;
7231;SDS011;3657;49.630;11.018;2023-04-25T10:49:30;5.60;;;5.30;;
7231;SDS011;3657;49.630;11.018;2023-04-25T10:52:11;5.23;;;5.13;;
7231;SDS011;3657;49.630;11.018;2023-04-25T10:54:42;5.37;;;5.27;;
7231;SDS011;3657;49.630;11.018;2023-04-25T10:59:58;5.10;;;4.90;;
7231;SDS011;3657;49.630;11.018;2023-04-25T11:02:31;4.30;;;4.20;;
7231;SDS011;3657;49.630;11.018;2023-04-25T11:05:02;4.87;;;4.77;;
7231;SDS011;3657;49.630;11.018;2023-04-25T11:07:33;4.97;;;4.87;;
7231;SDS011;3657;49.630;11.018;2023-04-25T11:10:03;4.33;;;4.23;;
7231;SDS011;3657;49.630;11.018;2023-04-25T11:12:35;4.57;;;4.27;;
7231;SDS011;3657;49.630;11.018;2023-04-25T11:15:02;4.30;;;4.20;;
7231;SDS011;3657;49.630;11.018;2023-04-25T11:17:30;4.87;;;4.77;;
7231;SDS011;3657;49.630;11.018;2023-04-25T11:19:58;4.30;;;4.20;;
7231;SDS011;3657;49.630;11.018;2023-04-25T11:22:25;4.20;;;4.10;;
7231;SDS011;3657;49.630;11.018;2023-04-25T11:24:53;4.23;;;4.13;;
7231;SDS011;3657;49.630;11.018;2023-04-25T11:27:20;3.77;;;3.67;;
7231;SDS011;3657;49.630;11.018;2023-04-25T11:29:50;4.50;;;4.37;;
7231;SDS011;3657;49.630;11.018;2023-04-25T11:32:17;4.37;;;4.27;;
7231;SDS011;3657;49.630;11.018;2023-04-25T11:34:45;4.53;;;4.43;;
7231;SDS011;3657;49.630;11.018;2023-04-25T11:37:12;4.13;;;3.83;;
7231;SDS011;3657;49.630;11.018;2023-04-25T11:39:42;4.20;;;4.10;;
7231;SDS011;3657;49.630;11.018;2023-04-25T11:42:12;4.20;;;4.10;;
7231;SDS011;3657;49.630;11.018;2023-04-25T11:44:39;4.40;;;4.30;;
7231;SDS011;3657;49.630;11.018;2023-04-25T11:47:07;3.93;;;3.83;;
7231;SDS011;3657;49.630;11.018;2023-04-25T11:49:35;4.00;;;3.90;;
7231;SDS011;3657;49.630;11.018;2023-04-25T11:52:02;4.30;;;4.20;;
7231;SDS011;3657;49.630;11.018;2023-04-25T11:54:29;4.10;;;4.00;;
7231;SDS011;3657;49.630;11.018;2023-04-25T11:56:55;3.83;;;3.73;;
7231;SDS011;3657;49.630;11.018;2023-04-25T11:59:23;3.77;;;3.67;;
7231;SDS011;3657;49.630;11.018;2023-04-25T12:01:51;4.63;;;4.53;;
7231;SDS011;3657;49.630;11.018;2023-04-25T12:04:19;3.80;;;3.70;;
7231;SDS011;3657;49.630;11.018;2023-04-25T12:06:48;3.80;;;3.60;;
7231;SDS011;3657;49.630;11.018;2023-04-25T12:09:16;4.30;;;4.20;;
7231;SDS011;3657;49.630;11.018;2023-04-25T12:11:44;4.70;;;4.50;;
7231;SDS011;3657;49.630;11.018;2023-04-25T12:14:12;4.20;;;4.10;;
7231;SDS011;3657;49.630;11.018;2023-04-25T12:16:48;4.57;;;4.40;;
7231;SDS011;3657;49.630;11.018;2023-04-25T12:19:16;3.90;;;3.80;;
7231;SDS011;3657;49.630;11.018;2023-04-25T12:21:46;4.13;;;4.03;;
7231;SDS011;3657;49.630;11.018;2023-04-25T12:24:14;4.00;;;3.90;;
7231;SDS011;3657;49.630;11.018;2023-04-25T12:26:49;4.33;;;4.23;;
7231;SDS011;3657;49.630;11.018;2023-04-25T12:29:17;4.20;;;4.10;;
7231;SDS011;3657;49.630;11.018;2023-04-25T12:31:45;4.37;;;4.27;;
7231;SDS011;3657;49.630;11.018;2023-04-25T12:34:12;4.47;;;4.37;;
7231;SDS011;3657;49.630;11.018;2023-04-25T12:36:39;3.90;;;3.80;;
7231;SDS011;3657;49.630;11.018;2023-04-25T12:39:08;4.20;;;3.97;;
7231;SDS011;3657;49.630;11.018;2023-04-25T12:41:35;4.87;;;4.77;;
7231;SDS011;3657;49.630;11.018;2023-04-25T12:44:02;4.60;;;4.37;;
7231;SDS011;3657;49.630;11.018;2023-04-25T12:46:29;4.70;;;4.60;;
7231;SDS011;3657;49.630;11.018;2023-04-25T12:48:56;4.60;;;4.50;;
7231;SDS011;3657;49.630;11.018;2023-04-25T12:51:22;3.97;;;3.87;;
7231;SDS011;3657;49.630;11.018;2023-04-25T12:53:50;4.73;;;4.63;;
7231;SDS011;3657;49.630;11.018;2023-04-25T12:56:18;4.50;;;4.40;;
7231;SDS011;3657;49.630;11.018;2023-04-25T12:58:47;4.57;;;4.47;;
7231;SDS011;3657;49.630;11.018;2023-04-25T13:01:14;4.73;;;4.63;;
7231;SDS011;3657;49.630;11.018;2023-04-25T13:03:41;4.50;;;4.40;;
7231;SDS011;3657;49.630;11.018;2023-04-25T13:06:08;4.93;;;4.83;;
7231;SDS011;3657;49.630;11.018;2023-04-25T13:08:35;4.33;;;4.23;;
7231;SDS011;3657;49.630;11.018;2023-04-25T13:11:03;6.40;;;6.17;;
7231;SDS011;3657;49.630;11.018;2023-04-25T13:13:31;5.97;;;5.70;;
7231;SDS011;3657;49.630;11.018;2023-04-25T13:15:59;5.90;;;5.70;;
7231;SDS011;3657;49.630;11.018;2023-04-25T13:18:26;5.30;;;5.13;;
7231;SDS011;3657;49.630;11.018;2023-04-25T13:20:53;5.50;;;5.30;;
7231;SDS011;3657;49.630;11.018;2023-04-25T13:23:20;5.57;;;5.47;;
7231;SDS011;3657;49.630;11.018;2023-04-25T13:25:47;5.80;;;5.60;;
7231;SDS011;3657;49.630;11.018;2023-04-25T13:28:13;4.93;;;4.83;;
7231;SDS011;3657;49.630;11.018;2023-04-25T13:30:42;5.10;;;5.00;;
7231;SDS011;3657;49.630;11.018;2023-04-25T13:33:09;4.93;;;4.83;;
7231;SDS011;3657;49.630;11.018;2023-04-25T13:35:36;4.97;;;4.87;;
7231;SDS011;3657;49.630;11.018;2023-04-25T13:38:03;4.60;;;4.50;;
7231;SDS011;3657;49.630;11.018;2023-04-25T13:40:30;4.57;;;4.47;;
7231;SDS011;3657;49.630;11.018;2023-04-25T13:42:58;4.73;;;4.63;;
7231;SDS011;3657;49.630;11.018;2023-04-25T13:45:25;5.47;;;5.27;;
7231;SDS011;3657;49.630;11.018;2023-04-25T13:47:53;5.73;;;5.53;;
7231;SDS011;3657;49.630;11.018;2023-04-25T13:50:20;4.30;;;4.20;;
7231;SDS011;3657;49.630;11.018;2023-04-25T13:52:49;4.90;;;4.80;;
7231;SDS011;3657;49.630;11.018;2023-04-25T13:55:16;5.20;;;4.90;;
7231;SDS011;3657;49.630;11.018;2023-04-25T13:57:43;5.10;;;4.97;;
7231;SDS011;3657;49.630;11.018;2023-04-25T14:00:11;4.37;;;4.27;;
7231;SDS011;3657;49.630;11.018;2023-04-25T14:02:38;4.40;;;4.30;;
7231;SDS011;3657;49.630;11.018;2023-04-25T14:05:07;5.07;;;4.97;;
7231;SDS011;3657;49.630;11.018;2023-04-25T14:07:34;4.60;;;4.50;;
7231;SDS011;3657;49.630;11.018;2023-04-25T14:10:01;5.50;;;5.33;;
7231;SDS011;3657;49.630;11.018;2023-04-25T14:12:29;7.67;;;7.37;;
7231;SDS011;3657;49.630;11.018;2023-04-25T14:14:55;5.93;;;5.73;;
7231;SDS011;3657;49.630;11.018;2023-04-25T14:17:22;5.83;;;5.60;;
7231;SDS011;3657;49.630;11.018;2023-04-25T14:19:49;5.00;;;4.80;;
7231;SDS011;3657;49.630;11.018;2023-04-25T14:22:17;6.47;;;6.27;;
7231;SDS011;3657;49.630;11.018;2023-04-25T14:24:45;8.00;;;7.57;;
7231;SDS011;3657;49.630;11.018;2023-04-25T14:27:12;7.17;;;6.97;;
7231;SDS011;3657;49.630;11.018;2023-04-25T14:29:38;6.20;;;6.00;;
7231;SDS011;3657;49.630;11.018;2023-04-25T14:32:05;8.53;;;8.23;;
7231;SDS011;3657;49.630;11.018;2023-04-25T14:34:32;6.53;;;6.33;;
7231;SDS011;3657;49.630;11.018;2023-04-25T14:36:58;7.10;;;6.80;;
7231;SDS011;3657;49.630;11.018;2023-04-25T14:39:26;6.50;;;6.30;;
7231;SDS011;3657;49.630;11.018;2023-04-25T14:41:53;5.77;;;5.57;;
7231;SDS011;3657;49.630;11.018;2023-04-25T14:44:21;6.00;;;5.80;;
7231;SDS011;3657;49.630;11.018;2023-04-25T14:46:47;6.03;;;5.83;;
7231;SDS011;3657;49.630;11.018;2023-04-25T14:49:16;6.77;;;6.57;;
7231;SDS011;3657;49.630;11.018;2023-04-25T14:51:43;9.13;;;8.73;;
7231;SDS011;3657;49.630;11.018;2023-04-25T14:54:12;8.40;;;8.10;;
7231;SDS011;3657;49.630;11.018;2023-04-25T14:56:40;7.00;;;6.70;;
7231;SDS011;3657;49.630;11.018;2023-04-25T14:59:07;6.57;;;6.37;;
7231;SDS011;3657;49.630;11.018;2023-04-25T15:01:34;6.47;;;6.27;;
7231;SDS011;3657;49.630;11.018;2023-04-25T15:04:01;6.17;;;5.97;;
7231;SDS011;3657;49.630;11.018;2023-04-25T15:06:28;5.80;;;5.60;;
7231;SDS011;3657;49.630;11.018;2023-04-25T15:08:55;5.37;;;5.27;;